Terminal Aerodrome Forecast
Issued by NWS

Home | Current Version | Previous Version | Text Only | Print | Product List | Glossary On
Versions: 1 2 3 4 5 6 7 8 9 10 11 12 13 14
000
FTUS45 KGJT 281751
TAFASE
TAF
KASE 281751Z 2818/2918 33012KT P6SM FEW250
     FM282000 29013G21KT P6SM SCT200
     FM290100 25014KT P6SM FEW200
     FM290800 20006KT P6SM FEW200
     FM291400 27004KT P6SM FEW250
     FM291700 31008KT P6SM FEW200=

USA.gov is the U.S. government's official web portal to all federal, state and local government web resources and services.